Time;durP1;ratioP1;P1;durP2;ratioP2;P2;SDS_P1;SDS_P2;PMS_P1;PMS_P2;Temp;Humidity;BMP_temperature;BMP_pressure;BME280_temperature;BME280_humidity;BME280_pressure;Samples;Min_cycle;Max_cycle;Signal;HPM_P1;HPM_P2
2021/11/16 00:00:19;;;;;;;;;;;;;;;;;;1008812;29;1062;-21
2021/11/16 00:00:50;;;;;;;;;;;;;;;;;;1008868;29;1031;-21
2021/11/16 00:01:24;;;;;;;;;;;;;;;;;;1005178;29;964;-20
2021/11/16 00:01:55;;;;;;;;;;;;;;;;;;1008997;29;1072;-20
2021/11/16 00:02:25;;;;;;;;;;;;;;;;;;1009660;29;1023;-20
2021/11/16 00:02:56;;;;;;;;;;;;;;;;;;1013061;29;1348;-20
2021/11/16 00:03:26;;;;;;;;;;;;;;;;;;1016844;29;1057;-21
2021/11/16 00:03:56;;;;;;;;;;;;;;;;;;1016488;29;1340;-21
2021/11/16 00:04:27;;;;;;;;;;;;;;;;;;1012816;29;1030;-21
2021/11/16 00:04:57;;;;;;;;;;;;;;;;;;1012699;29;1907;-21
2021/11/16 00:05:28;;;;;;;;;;;;;;;;;;1012501;29;1467;-21
2021/11/16 00:05:59;;;;;;;;;;;;;;;;;;1008738;29;999;-20
2021/11/16 00:06:29;;;;;;;;;;;;;;;;;;1008586;29;1072;-21
2021/11/16 00:07:00;;;;;;;;;;;;;;;;;;1008893;29;1044;-20
2021/11/16 00:07:32;;;;;;;;;;;;;;;;;;1008998;29;946;-21
2021/11/16 00:08:03;;;;;;;;;;;;;;;;;;1004776;29;1445;-21
2021/11/16 00:08:34;;;;;;;;;;;;;;;;;;1008635;29;1097;-21
2021/11/16 00:09:05;;;;;;;;;;;;;;;;;;1008747;29;947;-21
2021/11/16 00:09:36;;;;;;;;;;;;;;;;;;1009061;29;1061;-20
2021/11/16 00:10:08;;;;;;;;;;;;;;;;;;1005461;29;924;-20
2021/11/16 00:10:39;;;;;;;;;;;;;;;;;;1004188;29;1360;-20
2021/11/16 00:11:10;;;;;;;;;;;;;;;;;;1000789;29;1261;-21
2021/11/16 00:11:40;;;;;;;;;;;;;;;;;;1001546;29;915;-20
2021/11/16 00:12:11;;;;;;;;;;;;;;;;;;1004704;29;1260;-21
2021/11/16 00:12:41;;;;;;;;;;;;;;;;;;1008603;29;1076;-20
2021/11/16 00:13:13;;;;;;;;;;;;;;;;;;1012525;29;1446;-21
2021/11/16 00:13:44;;;;;;;;;;;;;;;;;;1008790;29;1362;-20
2021/11/16 00:14:16;;;;;;;;;;;;;;;;;;1001308;29;1514;-21
2021/11/16 00:14:48;;;;;;;;;;;;;;;;;;1005118;29;1680;-20
2021/11/16 00:15:18;;;;;;;;;;;;;;;;;;1013268;29;1012;-20
2021/11/16 00:15:49;;;;;;;;;;;;;;;;;;1012310;29;1405;-22
2021/11/16 00:16:20;;;;;;;;;;;;;;;;;;1016713;29;1365;-21
2021/11/16 00:16:50;;;;;;;;;;;;;;;;;;1016642;29;1096;-20
2021/11/16 00:17:21;;;;;;;;;;;;;;;;;;1016799;29;1314;-20
2021/11/16 00:17:52;;;;;;;;;;;;;;;;;;1016433;29;1018;-20
2021/11/16 00:18:27;;;;;;;;;;;;;;;;;;1012806;29;911;-20
2021/11/16 00:18:59;;;;;;;;;;;;;;;;;;1004782;29;1088;-21
2021/11/16 00:19:29;;;;;;;;;;;;;;;;;;1005075;29;1336;-21
2021/11/16 00:20:02;;;;;;;;;;;;;;;;;;1005528;29;1415;-21
2021/11/16 00:20:36;;;;;;;;;;;;;;;;;;1006960;29;1017;-21
2021/11/16 00:21:10;;;;;;;;;;;;;;;;;;1012896;29;959;-20
2021/11/16 00:21:45;;;;;;;;;;;;;;;;;;1002489;29;993;-20
2021/11/16 00:22:18;;;;;;;;;;;;;;;;;;1006913;29;1014;-21
2021/11/16 00:22:49;;;;;;;;;;;;;;;;;;1008441;29;1492;-20
2021/11/16 00:23:21;;;;;;;;;;;;;;;;;;1011801;29;1096;-20
2021/11/16 00:23:56;;;;;;;;;;;;;;;;;;1016549;29;1321;-20
2021/11/16 00:24:46;;;;;;;;;;;;;;;;;;1012672;29;1117;-21
2021/11/16 00:25:20;;;;;;;;;;;;;;;;;;1004614;29;1253;-21
2021/11/16 00:25:54;;;;;;;;;;;;;;;;;;1001493;29;1157;-20
2021/11/16 00:26:25;;;;;;;;;;;;;;;;;;1004923;29;1474;-21
2021/11/16 00:26:55;;;;;;;;;;;;;;;;;;1009152;29;1031;-20
2021/11/16 00:27:26;;;;;;;;;;;;;;;;;;1016788;29;1155;-20
2021/11/16 00:27:57;;;;;;;;;;;;;;;;;;1012678;29;1198;-21
2021/11/16 00:28:28;;;;;;;;;;;;;;;;;;1016711;29;992;-20
2021/11/16 00:28:58;;;;;;;;;;;;;;;;;;1016692;29;1022;-21
2021/11/16 00:29:28;;;;;;;;;;;;;;;;;;1012477;29;1370;-21
2021/11/16 00:29:59;;;;;;;;;;;;;;;;;;1016708;29;1214;-20
2021/11/16 00:30:30;;;;;;;;;;;;;;;;;;1016460;29;995;-21
2021/11/16 00:31:00;;;;;;;;;;;;;;;;;;1020434;29;1152;-20
2021/11/16 00:31:32;;;;;;;;;;;;;;;;;;1020695;29;1202;-21
2021/11/16 00:32:06;;;;;;;;;;;;;;;;;;1016376;29;979;-21
2021/11/16 00:32:36;;;;;;;;;;;;;;;;;;1016639;29;1027;-21
2021/11/16 00:33:07;;;;;;;;;;;;;;;;;;1016874;29;953;-21
2021/11/16 00:33:37;;;;;;;;;;;;;;;;;;1016838;29;899;-20
2021/11/16 00:34:08;;;;;;;;;;;;;;;;;;1017548;29;967;-21
2021/11/16 00:34:38;;;;;;;;;;;;;;;;;;1016725;29;1317;-21
2021/11/16 00:35:10;;;;;;;;;;;;;;;;;;1016648;29;1255;-21
2021/11/16 00:35:40;;;;;;;;;;;;;;;;;;1008903;29;1097;-21
2021/11/16 00:36:10;;;;;;;;;;;;;;;;;;1008635;29;1118;-21
2021/11/16 00:36:41;;;;;;;;;;;;;;;;;;1009027;29;1113;-21
2021/11/16 00:37:12;;;;;;;;;;;;;;;;;;1012327;29;1294;-21
2021/11/16 00:37:43;;;;;;;;;;;;;;;;;;1016844;29;1145;-21
2021/11/16 00:38:14;;;;;;;;;;;;;;;;;;1008890;29;1119;-21
2021/11/16 00:38:45;;;;;;;;;;;;;;;;;;1008809;29;1471;-21
2021/11/16 00:39:15;;;;;;;;;;;;;;;;;;1008818;29;1093;-22
2021/11/16 00:39:46;;;;;;;;;;;;;;;;;;1009356;29;1044;-21
2021/11/16 00:40:19;;;;;;;;;;;;;;;;;;1016818;29;924;-21
2021/11/16 00:40:49;;;;;;;;;;;;;;;;;;1016649;29;1195;-22
2021/11/16 00:41:20;;;;;;;;;;;;;;;;;;1016460;29;1066;-22
2021/11/16 00:41:51;;;;;;;;;;;;;;;;;;1016661;29;1078;-21
2021/11/16 00:42:22;;;;;;;;;;;;;;;;;;1016448;29;1620;-21
2021/11/16 00:42:52;;;;;;;;;;;;;;;;;;1016562;29;997;-21
2021/11/16 00:43:23;;;;;;;;;;;;;;;;;;1012545;29;1030;-21
2021/11/16 00:43:53;;;;;;;;;;;;;;;;;;1012349;29;1305;-21
2021/11/16 00:44:24;;;;;;;;;;;;;;;;;;1012799;29;1136;-21
2021/11/16 00:44:54;;;;;;;;;;;;;;;;;;1012734;29;1907;-22
2021/11/16 00:45:26;;;;;;;;;;;;;;;;;;1012928;29;1085;-21
2021/11/16 00:45:57;;;;;;;;;;;;;;;;;;1013647;29;1069;-21
2021/11/16 00:46:27;;;;;;;;;;;;;;;;;;1012962;29;1555;-21
2021/11/16 00:46:58;;;;;;;;;;;;;;;;;;1013644;29;1440;-21
2021/11/16 00:47:28;;;;;;;;;;;;;;;;;;1017290;29;1067;-21
2021/11/16 00:48:00;;;;;;;;;;;;;;;;;;1012817;29;1552;-20
2021/11/16 00:48:30;;;;;;;;;;;;;;;;;;1013244;29;1034;-20
2021/11/16 00:49:00;;;;;;;;;;;;;;;;;;1013604;29;1493;-21
2021/11/16 00:49:31;;;;;;;;;;;;;;;;;;1017072;29;1289;-21
2021/11/16 00:50:03;;;;;;;;;;;;;;;;;;1013482;29;999;-21
2021/11/16 00:50:34;;;;;;;;;;;;;;;;;;1017268;29;1181;-21
2021/11/16 00:51:06;;;;;;;;;;;;;;;;;;1017902;29;935;-21
2021/11/16 00:51:36;;;;;;;;;;;;;;;;;;1012992;29;1375;-20
2021/11/16 00:52:07;;;;;;;;;;;;;;;;;;1013070;29;1253;-21
2021/11/16 00:52:38;;;;;;;;;;;;;;;;;;1021238;29;1201;-21
2021/11/16 00:53:09;;;;;;;;;;;;;;;;;;1012266;29;1232;-20
2021/11/16 00:53:41;;;;;;;;;;;;;;;;;;1005544;29;1065;-20
2021/11/16 00:54:11;;;;;;;;;;;;;;;;;;1013039;29;1112;-21
2021/11/16 00:54:42;;;;;;;;;;;;;;;;;;1010058;29;973;-21
2021/11/16 00:55:14;;;;;;;;;;;;;;;;;;1013531;29;947;-21
2021/11/16 00:55:45;;;;;;;;;;;;;;;;;;1013460;29;1423;-22
2021/11/16 00:56:15;;;;;;;;;;;;;;;;;;1013511;29;1141;-21
2021/11/16 00:56:46;;;;;;;;;;;;;;;;;;1009879;29;1028;-22
2021/11/16 00:57:17;;;;;;;;;;;;;;;;;;1012639;29;1541;-22
2021/11/16 00:57:47;;;;;;;;;;;;;;;;;;1017397;29;1304;-21
2021/11/16 00:58:18;;;;;;;;;;;;;;;;;;1012928;29;1378;-21
2021/11/16 00:58:49;;;;;;;;;;;;;;;;;;1013545;29;1047;-20
2021/11/16 00:59:19;;;;;;;;;;;;;;;;;;1013556;29;1179;-22
2021/11/16 00:59:49;;;;;;;;;;;;;;;;;;1021544;28;945;-21
2021/11/16 01:00:20;;;;;;;;;;;;;;;;;;1025478;28;1025;-21
2021/11/16 01:00:51;;;;;;;;;;;;;;;;;;1025135;28;1297;-21
2021/11/16 01:01:21;;;;;;;;;;;;;;;;;;1025390;28;1125;-21
2021/11/16 01:01:52;;;;;;;;;;;;;;;;;;1025387;28;1040;-22
2021/11/16 01:02:25;;;;;;;;;;;;;;;;;;1017260;29;1096;-20
2021/11/16 01:02:57;;;;;;;;;;;;;;;;;;1017347;29;1174;-21
2021/11/16 01:03:30;;;;;;;;;;;;;;;;;;1009051;29;1838;-21
2021/11/16 01:04:01;;;;;;;;;;;;;;;;;;1010118;29;1127;-21
2021/11/16 01:04:32;;;;;;;;;;;;;;;;;;1017260;29;1121;-21
2021/11/16 01:05:04;;;;;;;;;;;;;;;;;;1017367;29;1973;-21
2021/11/16 01:05:35;;;;;;;;;;;;;;;;;;1013244;29;1050;-21
2021/11/16 01:06:06;;;;;;;;;;;;;;;;;;1009445;29;1085;-20
2021/11/16 01:06:36;;;;;;;;;;;;;;;;;;1009850;29;1162;-21
2021/11/16 01:07:07;;;;;;;;;;;;;;;;;;1013756;29;982;-21
2021/11/16 01:07:38;;;;;;;;;;;;;;;;;;1020740;29;1277;-22
2021/11/16 01:08:09;;;;;;;;;;;;;;;;;;1021089;29;1194;-20
2021/11/16 01:08:39;;;;;;;;;;;;;;;;;;1021353;29;1087;-22
2021/11/16 01:09:10;;;;;;;;;;;;;;;;;;1020833;29;1292;-20
2021/11/16 01:09:41;;;;;;;;;;;;;;;;;;1017357;29;1064;-22
2021/11/16 01:10:13;;;;;;;;;;;;;;;;;;1017226;29;1492;-21
2021/11/16 01:10:44;;;;;;;;;;;;;;;;;;1021487;29;969;-21
2021/11/16 01:11:15;;;;;;;;;;;;;;;;;;1021201;29;1090;-21
2021/11/16 01:11:46;;;;;;;;;;;;;;;;;;1021438;29;1091;-21
2021/11/16 01:12:17;;;;;;;;;;;;;;;;;;1021337;29;894;-21
2021/11/16 01:12:47;;;;;;;;;;;;;;;;;;1017751;28;1041;-21
2021/11/16 01:13:20;;;;;;;;;;;;;;;;;;1025089;28;1069;-20
2021/11/16 01:13:50;;;;;;;;;;;;;;;;;;1025565;28;954;-21
2021/11/16 01:14:21;;;;;;;;;;;;;;;;;;1024948;28;1349;-20
2021/11/16 01:14:52;;;;;;;;;;;;;;;;;;1026079;28;1004;-21
2021/11/16 01:15:23;;;;;;;;;;;;;;;;;;1021321;29;992;-21
2021/11/16 01:15:54;;;;;;;;;;;;;;;;;;1020508;28;1317;-22
2021/11/16 01:16:25;;;;;;;;;;;;;;;;;;1016980;29;1109;-21
2021/11/16 01:16:55;;;;;;;;;;;;;;;;;;1017354;28;1202;-22
2021/11/16 01:17:26;;;;;;;;;;;;;;;;;;1025150;28;1096;-21
2021/11/16 01:17:56;;;;;;;;;;;;;;;;;;1017351;29;1010;-20
2021/11/16 01:18:27;;;;;;;;;;;;;;;;;;1020972;29;1510;-20
2021/11/16 01:19:00;;;;;;;;;;;;;;;;;;1017126;29;1052;-21
2021/11/16 01:19:31;;;;;;;;;;;;;;;;;;1017184;29;1273;-20
2021/11/16 01:20:04;;;;;;;;;;;;;;;;;;1021322;29;1110;-21
2021/11/16 01:20:35;;;;;;;;;;;;;;;;;;1021942;28;1144;-21
2021/11/16 01:21:05;;;;;;;;;;;;;;;;;;1026141;28;1091;-21
2021/11/16 01:21:36;;;;;;;;;;;;;;;;;;1025801;28;909;-21
2021/11/16 01:22:07;;;;;;;;;;;;;;;;;;1026012;28;1623;-21
2021/11/16 01:22:38;;;;;;;;;;;;;;;;;;1021097;29;1092;-21
2021/11/16 01:23:09;;;;;;;;;;;;;;;;;;1021357;29;1057;-21
2021/11/16 01:23:40;;;;;;;;;;;;;;;;;;1020604;29;1500;-21
2021/11/16 01:24:10;;;;;;;;;;;;;;;;;;1021324;28;1188;-21
2021/11/16 01:24:41;;;;;;;;;;;;;;;;;;1021248;29;1902;-21
2021/11/16 01:25:13;;;;;;;;;;;;;;;;;;1017102;29;1019;-21
2021/11/16 01:25:45;;;;;;;;;;;;;;;;;;1017195;29;976;-21
2021/11/16 01:26:15;;;;;;;;;;;;;;;;;;1017594;29;1223;-20
2021/11/16 01:26:47;;;;;;;;;;;;;;;;;;1020951;29;988;-21
2021/11/16 01:27:19;;;;;;;;;;;;;;;;;;1017970;28;950;-21
2021/11/16 01:27:51;;;;;;;;;;;;;;;;;;1016859;29;1351;-21
2021/11/16 01:28:25;;;;;;;;;;;;;;;;;;1016834;29;1251;-21
2021/11/16 01:28:57;;;;;;;;;;;;;;;;;;1013123;29;1035;-21
2021/11/16 01:29:28;;;;;;;;;;;;;;;;;;1016696;28;1122;-22
2021/11/16 01:29:59;;;;;;;;;;;;;;;;;;1026074;28;1249;-21
2021/11/16 01:30:32;;;;;;;;;;;;;;;;;;1020889;29;1486;-21
2021/11/16 01:31:04;;;;;;;;;;;;;;;;;;1021328;29;1135;-21
2021/11/16 01:31:35;;;;;;;;;;;;;;;;;;1020781;29;1467;-22
2021/11/16 01:32:09;;;;;;;;;;;;;;;;;;1022092;28;1077;-21
2021/11/16 01:32:46;;;;;;;;;;;;;;;;;;1025340;28;938;-21
2021/11/16 01:34:01;;;;;;;;;;;;;;;;;;1025788;28;1174;-21
2021/11/16 01:34:11;;;;;;;;;;;;;;;;;;1019761;28;1121;-20
2021/11/16 01:34:46;;;;;;;;;;;;;;;;;;1029181;28;1044;-20
2021/11/16 01:35:17;;;;;;;;;;;;;;;;;;1029171;28;955;-21
2021/11/16 01:35:48;;;;;;;;;;;;;;;;;;1020405;29;1502;-21
2021/11/16 01:36:18;;;;;;;;;;;;;;;;;;1021306;29;1038;-21
2021/11/16 01:36:48;;;;;;;;;;;;;;;;;;1020723;29;1393;-21
2021/11/16 01:37:20;;;;;;;;;;;;;;;;;;1013424;29;1067;-21
2021/11/16 01:37:50;;;;;;;;;;;;;;;;;;1021284;29;1151;-22
2021/11/16 01:38:23;;;;;;;;;;;;;;;;;;1021514;29;1506;-22
2021/11/16 01:38:57;;;;;;;;;;;;;;;;;;1013573;29;1229;-21
2021/11/16 01:39:28;;;;;;;;;;;;;;;;;;1020755;29;1344;-21
2021/11/16 01:39:59;;;;;;;;;;;;;;;;;;1021085;29;1001;-21
2021/11/16 01:40:29;;;;;;;;;;;;;;;;;;1016731;29;1063;-21
2021/11/16 01:41:01;;;;;;;;;;;;;;;;;;1017094;29;1552;-21
2021/11/16 01:41:31;;;;;;;;;;;;;;;;;;1009378;29;1027;-21
2021/11/16 01:42:02;;;;;;;;;;;;;;;;;;1009891;29;1010;-21
2021/11/16 01:42:33;;;;;;;;;;;;;;;;;;1017209;29;1152;-21
2021/11/16 01:43:07;;;;;;;;;;;;;;;;;;1017776;28;990;-21
2021/11/16 01:43:38;;;;;;;;;;;;;;;;;;1020243;29;1253;-22
2021/11/16 01:44:08;;;;;;;;;;;;;;;;;;1017131;29;1423;-21
2021/11/16 01:44:39;;;;;;;;;;;;;;;;;;1020605;29;1911;-21
2021/11/16 01:45:09;;;;;;;;;;;;;;;;;;1021475;28;1280;-21
2021/11/16 01:45:40;;;;;;;;;;;;;;;;;;1025432;28;1034;-20
2021/11/16 01:46:13;;;;;;;;;;;;;;;;;;1025150;28;1517;-21
2021/11/16 01:46:44;;;;;;;;;;;;;;;;;;1020862;29;1306;-21
2021/11/16 01:47:15;;;;;;;;;;;;;;;;;;1013146;29;1024;-22
2021/11/16 01:47:46;;;;;;;;;;;;;;;;;;1013082;29;1371;-21
2021/11/16 01:48:17;;;;;;;;;;;;;;;;;;1013628;29;1061;-20
2021/11/16 01:48:50;;;;;;;;;;;;;;;;;;1021336;28;1350;-20
2021/11/16 01:49:21;;;;;;;;;;;;;;;;;;1021227;29;1171;-20
2021/11/16 01:49:52;;;;;;;;;;;;;;;;;;1005417;29;1063;-22
2021/11/16 01:50:23;;;;;;;;;;;;;;;;;;1013031;29;948;-21
2021/11/16 01:50:53;;;;;;;;;;;;;;;;;;1013667;29;948;-22
2021/11/16 01:51:26;;;;;;;;;;;;;;;;;;1021441;28;1045;-21
2021/11/16 01:51:56;;;;;;;;;;;;;;;;;;1017644;28;1258;-21
2021/11/16 01:52:27;;;;;;;;;;;;;;;;;;1025379;28;1060;-21
2021/11/16 01:52:58;;;;;;;;;;;;;;;;;;1013146;29;1056;-21
2021/11/16 01:53:29;;;;;;;;;;;;;;;;;;1009212;29;906;-21
2021/11/16 01:54:03;;;;;;;;;;;;;;;;;;1005815;29;1030;-20
2021/11/16 01:54:34;;;;;;;;;;;;;;;;;;1003991;29;1413;-21
2021/11/16 01:55:06;;;;;;;;;;;;;;;;;;1018966;29;1264;-22
2021/11/16 01:55:36;;;;;;;;;;;;;;;;;;1020836;29;1573;-20
2021/11/16 01:56:07;;;;;;;;;;;;;;;;;;1021512;29;1192;-20
2021/11/16 01:56:40;;;;;;;;;;;;;;;;;;1021564;28;994;-21
2021/11/16 01:57:10;;;;;;;;;;;;;;;;;;1020059;29;1418;-21
2021/11/16 01:57:40;;;;;;;;;;;;;;;;;;1021399;29;1130;-21
2021/11/16 01:58:11;;;;;;;;;;;;;;;;;;1020906;29;1352;-22
2021/11/16 01:58:41;;;;;;;;;;;;;;;;;;1021190;29;1114;-21
2021/11/16 01:59:14;;;;;;;;;;;;;;;;;;1017125;29;1342;-21
2021/11/16 01:59:44;;;;;;;;;;;;;;;;;;1017159;29;1029;-21
2021/11/16 02:00:18;;;;;;;;;;;;;;;;;;1016981;29;1318;-22
2021/11/16 02:00:48;;;;;;;;;;;;;;;;;;1017638;29;1418;-21
2021/11/16 02:01:19;;;;;;;;;;;;;;;;;;1021944;28;1072;-21
2021/11/16 02:01:50;;;;;;;;;;;;;;;;;;1021384;29;1033;-22
2021/11/16 02:02:21;;;;;;;;;;;;;;;;;;1016985;29;1228;-20
2021/11/16 02:02:52;;;;;;;;;;;;;;;;;;1017194;29;1303;-21
2021/11/16 02:03:23;;;;;;;;;;;;;;;;;;1013566;29;879;-21
2021/11/16 02:03:54;;;;;;;;;;;;;;;;;;1012835;29;1308;-20
2021/11/16 02:04:24;;;;;;;;;;;;;;;;;;1017190;29;1037;-21
2021/11/16 02:04:55;;;;;;;;;;;;;;;;;;1008750;29;1899;-21
2021/11/16 02:05:36;;;;;;;;;;;;;;;;;;1009327;29;1159;-21
2021/11/16 02:06:32;;;;;;;;;;;;;;;;;;1013278;29;1252;-21
2021/11/16 02:07:03;;;;;;;;;;;;;;;;;;1018202;29;1154;-21
2021/11/16 02:07:34;;;;;;;;;;;;;;;;;;1021235;29;980;-21
2021/11/16 02:08:04;;;;;;;;;;;;;;;;;;1021815;29;1119;-21
2021/11/16 02:08:35;;;;;;;;;;;;;;;;;;1021994;28;993;-21
2021/11/16 02:09:07;;;;;;;;;;;;;;;;;;1019833;28;939;-22
2021/11/16 02:09:38;;;;;;;;;;;;;;;;;;1016789;29;1501;-20
2021/11/16 02:10:08;;;;;;;;;;;;;;;;;;1013271;29;1137;-21
2021/11/16 02:10:40;;;;;;;;;;;;;;;;;;1013328;29;940;-21
2021/11/16 02:11:11;;;;;;;;;;;;;;;;;;1013646;29;1401;-20
2021/11/16 02:11:45;;;;;;;;;;;;;;;;;;1021374;29;595;-21
2021/11/16 02:12:16;;;;;;;;;;;;;;;;;;1013202;29;995;-21
2021/11/16 02:12:46;;;;;;;;;;;;;;;;;;1013157;29;957;-21
2021/11/16 02:13:19;;;;;;;;;;;;;;;;;;1012869;29;1441;-20
2021/11/16 02:13:50;;;;;;;;;;;;;;;;;;1014361;28;1049;-21
2021/11/16 02:14:20;;;;;;;;;;;;;;;;;;1025099;28;554;-21
2021/11/16 02:14:51;;;;;;;;;;;;;;;;;;1021054;28;1316;-21
2021/11/16 02:15:21;;;;;;;;;;;;;;;;;;1020900;29;991;-22
2021/11/16 02:15:52;;;;;;;;;;;;;;;;;;1016746;29;1498;-20
2021/11/16 02:16:23;;;;;;;;;;;;;;;;;;1017184;29;1355;-22
2021/11/16 02:16:53;;;;;;;;;;;;;;;;;;1017141;29;966;-21
2021/11/16 02:17:24;;;;;;;;;;;;;;;;;;1021021;29;978;-20
2021/11/16 02:17:54;;;;;;;;;;;;;;;;;;1021252;29;784;-22
2021/11/16 02:18:25;;;;;;;;;;;;;;;;;;1017141;29;1016;-20
2021/11/16 02:18:56;;;;;;;;;;;;;;;;;;1017137;29;1077;-21
2021/11/16 02:19:26;;;;;;;;;;;;;;;;;;1017239;29;843;-21
2021/11/16 02:19:56;;;;;;;;;;;;;;;;;;1016588;29;1317;-20
2021/11/16 02:20:31;;;;;;;;;;;;;;;;;;1020828;29;1168;-20
2021/11/16 02:21:01;;;;;;;;;;;;;;;;;;1020915;29;1049;-21
2021/11/16 02:21:32;;;;;;;;;;;;;;;;;;1020312;29;1456;-21
2021/11/16 02:22:02;;;;;;;;;;;;;;;;;;1021296;29;1069;-21
2021/11/16 02:22:33;;;;;;;;;;;;;;;;;;1021672;28;1138;-21
2021/11/16 02:23:04;;;;;;;;;;;;;;;;;;1021588;28;1155;-21
2021/11/16 02:23:37;;;;;;;;;;;;;;;;;;1021824;28;1017;-21
2021/11/16 02:24:08;;;;;;;;;;;;;;;;;;1021352;28;1396;-21
2021/11/16 02:24:39;;;;;;;;;;;;;;;;;;1021225;29;1906;-20
2021/11/16 02:25:10;;;;;;;;;;;;;;;;;;1020833;29;1056;-20
2021/11/16 02:25:43;;;;;;;;;;;;;;;;;;1021208;29;973;-21
2021/11/16 02:26:14;;;;;;;;;;;;;;;;;;1021271;29;1053;-20
2021/11/16 02:26:44;;;;;;;;;;;;;;;;;;1021279;28;1387;-21
2021/11/16 02:27:15;;;;;;;;;;;;;;;;;;1021834;28;1102;-21
2021/11/16 02:27:47;;;;;;;;;;;;;;;;;;1021857;28;997;-21
2021/11/16 02:28:18;;;;;;;;;;;;;;;;;;1021860;28;1021;-21
2021/11/16 02:28:48;;;;;;;;;;;;;;;;;;1021943;28;923;-21
2021/11/16 02:29:19;;;;;;;;;;;;;;;;;;1021790;28;979;-21
2021/11/16 02:29:50;;;;;;;;;;;;;;;;;;1016939;29;1280;-22
2021/11/16 02:30:23;;;;;;;;;;;;;;;;;;1017207;29;1026;-21
2021/11/16 02:30:54;;;;;;;;;;;;;;;;;;1016801;29;1392;-21
2021/11/16 02:31:25;;;;;;;;;;;;;;;;;;1013978;29;1389;-21
2021/11/16 02:31:55;;;;;;;;;;;;;;;;;;1021026;29;1410;-21
2021/11/16 02:32:26;;;;;;;;;;;;;;;;;;1017313;29;1188;-20
2021/11/16 02:32:57;;;;;;;;;;;;;;;;;;1009647;29;960;-21
2021/11/16 02:33:27;;;;;;;;;;;;;;;;;;1013048;29;1327;-21
2021/11/16 02:33:57;;;;;;;;;;;;;;;;;;1013255;29;1093;-21
2021/11/16 02:34:28;;;;;;;;;;;;;;;;;;1012932;29;1339;-21
2021/11/16 02:34:58;;;;;;;;;;;;;;;;;;1017262;29;1031;-20
2021/11/16 02:35:30;;;;;;;;;;;;;;;;;;1016994;29;1057;-21
2021/11/16 02:36:00;;;;;;;;;;;;;;;;;;1016928;29;1338;-21
2021/11/16 02:36:32;;;;;;;;;;;;;;;;;;1020856;29;1088;-21
2021/11/16 02:37:04;;;;;;;;;;;;;;;;;;1020686;29;1303;-20
2021/11/16 02:37:34;;;;;;;;;;;;;;;;;;1021102;29;1041;-21
2021/11/16 02:38:05;;;;;;;;;;;;;;;;;;1021701;28;887;-21
2021/11/16 02:38:36;;;;;;;;;;;;;;;;;;1021873;28;973;-20
2021/11/16 02:39:08;;;;;;;;;;;;;;;;;;1020724;29;1450;-20
2021/11/16 02:39:39;;;;;;;;;;;;;;;;;;1021258;29;994;-21
2021/11/16 02:40:10;;;;;;;;;;;;;;;;;;1020329;29;1551;-21
2021/11/16 02:40:41;;;;;;;;;;;;;;;;;;1020850;29;1120;-21
2021/11/16 02:41:12;;;;;;;;;;;;;;;;;;1016927;29;1380;-21
2021/11/16 02:41:44;;;;;;;;;;;;;;;;;;1016998;29;1038;-20
2021/11/16 02:42:18;;;;;;;;;;;;;;;;;;1017115;29;1109;-21
2021/11/16 02:42:49;;;;;;;;;;;;;;;;;;1017694;29;1246;-21
2021/11/16 02:43:20;;;;;;;;;;;;;;;;;;1021686;28;1060;-21
2021/11/16 02:43:51;;;;;;;;;;;;;;;;;;1021873;28;930;-21
2021/11/16 02:44:22;;;;;;;;;;;;;;;;;;1021648;28;982;-21
2021/11/16 02:44:53;;;;;;;;;;;;;;;;;;1020905;29;1926;-21
2021/11/16 02:45:24;;;;;;;;;;;;;;;;;;1012406;29;1347;-21
2021/11/16 02:45:54;;;;;;;;;;;;;;;;;;1012989;29;1069;-22
2021/11/16 02:46:26;;;;;;;;;;;;;;;;;;1005130;29;1438;-21
2021/11/16 02:46:56;;;;;;;;;;;;;;;;;;1009269;29;1228;-21
2021/11/16 02:47:27;;;;;;;;;;;;;;;;;;1016707;29;1530;-21
2021/11/16 02:47:57;;;;;;;;;;;;;;;;;;1017046;29;1463;-21
2021/11/16 02:48:29;;;;;;;;;;;;;;;;;;1021524;28;1008;-20
2021/11/16 02:49:00;;;;;;;;;;;;;;;;;;1020799;29;1022;-21
2021/11/16 02:49:32;;;;;;;;;;;;;;;;;;1012085;29;1369;-21
2021/11/16 02:50:03;;;;;;;;;;;;;;;;;;1005266;29;1177;-21
2021/11/16 02:50:34;;;;;;;;;;;;;;;;;;1005677;29;1097;-20
2021/11/16 02:51:08;;;;;;;;;;;;;;;;;;1009461;29;924;-20
2021/11/16 02:51:39;;;;;;;;;;;;;;;;;;1014823;29;1009;-21
2021/11/16 02:52:11;;;;;;;;;;;;;;;;;;1021504;28;1391;-21
2021/11/16 02:52:42;;;;;;;;;;;;;;;;;;1021553;28;1049;-21
2021/11/16 02:53:13;;;;;;;;;;;;;;;;;;1020963;28;1502;-21
2021/11/16 02:53:43;;;;;;;;;;;;;;;;;;1021553;28;1127;-20
2021/11/16 02:54:18;;;;;;;;;;;;;;;;;;1021698;28;1077;-21
2021/11/16 02:54:52;;;;;;;;;;;;;;;;;;1020504;29;1351;-21
2021/11/16 02:55:23;;;;;;;;;;;;;;;;;;1012796;29;1068;-21
2021/11/16 02:55:53;;;;;;;;;;;;;;;;;;1013171;29;987;-21
2021/11/16 02:56:24;;;;;;;;;;;;;;;;;;1013484;29;884;-21
2021/11/16 02:56:55;;;;;;;;;;;;;;;;;;1017242;29;1030;-21
2021/11/16 02:57:26;;;;;;;;;;;;;;;;;;1008716;29;1262;-21
2021/11/16 02:58:02;;;;;;;;;;;;;;;;;;1009278;29;1511;-20
2021/11/16 02:58:32;;;;;;;;;;;;;;;;;;1008540;29;1401;-21
2021/11/16 02:59:03;;;;;;;;;;;;;;;;;;1009811;29;1001;-21
2021/11/16 02:59:33;;;;;;;;;;;;;;;;;;1013100;29;1198;-20
2021/11/16 03:00:06;;;;;;;;;;;;;;;;;;1012878;29;1341;-21
2021/11/16 03:00:37;;;;;;;;;;;;;;;;;;1017115;29;1020;-21
2021/11/16 03:01:10;;;;;;;;;;;;;;;;;;1020966;29;1011;-21
2021/11/16 03:01:41;;;;;;;;;;;;;;;;;;1020358;29;1794;-21
2021/11/16 03:02:12;;;;;;;;;;;;;;;;;;1021124;29;1131;-21
2021/11/16 03:02:45;;;;;;;;;;;;;;;;;;1020729;29;1103;-20
2021/11/16 03:03:15;;;;;;;;;;;;;;;;;;1021741;28;839;-21
2021/11/16 03:03:46;;;;;;;;;;;;;;;;;;1021566;29;887;-20
2021/11/16 03:04:21;;;;;;;;;;;;;;;;;;1021845;29;1001;-21
2021/11/16 03:04:52;;;;;;;;;;;;;;;;;;1024956;28;1906;-21
2021/11/16 03:05:22;;;;;;;;;;;;;;;;;;1024081;28;1514;-22
2021/11/16 03:05:53;;;;;;;;;;;;;;;;;;1024590;28;1309;-21
2021/11/16 03:06:23;;;;;;;;;;;;;;;;;;1025035;28;894;-21
2021/11/16 03:06:55;;;;;;;;;;;;;;;;;;1024807;28;1067;-21
2021/11/16 03:07:30;;;;;;;;;;;;;;;;;;1024834;28;1040;-21
2021/11/16 03:08:01;;;;;;;;;;;;;;;;;;1024346;28;1450;-21
2021/11/16 03:08:32;;;;;;;;;;;;;;;;;;1023815;28;1116;-22
2021/11/16 03:09:02;;;;;;;;;;;;;;;;;;1021624;29;799;-21
2021/11/16 03:09:33;;;;;;;;;;;;;;;;;;1021197;28;1099;-22
2021/11/16 03:10:04;;;;;;;;;;;;;;;;;;1021649;28;1181;-20
2021/11/16 03:10:35;;;;;;;;;;;;;;;;;;1021567;29;1202;-21
2021/11/16 03:11:07;;;;;;;;;;;;;;;;;;1024907;28;1026;-21
2021/11/16 03:11:39;;;;;;;;;;;;;;;;;;1025138;28;1000;-21
2021/11/16 03:12:10;;;;;;;;;;;;;;;;;;1020265;29;1266;-21
2021/11/16 03:12:41;;;;;;;;;;;;;;;;;;1004687;29;1233;-21
2021/11/16 03:13:11;;;;;;;;;;;;;;;;;;1001376;29;1241;-21
2021/11/16 03:13:42;;;;;;;;;;;;;;;;;;1000874;29;1235;-21
2021/11/16 03:14:12;;;;;;;;;;;;;;;;;;1009350;29;1086;-21
2021/11/16 03:14:44;;;;;;;;;;;;;;;;;;1021309;29;1405;-22
2021/11/16 03:15:15;;;;;;;;;;;;;;;;;;1016761;29;1527;-21
2021/11/16 03:15:46;;;;;;;;;;;;;;;;;;1016897;29;1083;-20
2021/11/16 03:16:17;;;;;;;;;;;;;;;;;;1001212;29;1067;-22
2021/11/16 03:16:48;;;;;;;;;;;;;;;;;;1001983;29;1153;-21
2021/11/16 03:17:18;;;;;;;;;;;;;;;;;;1008961;29;1330;-20
2021/11/16 03:17:48;;;;;;;;;;;;;;;;;;1009622;29;1057;-22
2021/11/16 03:18:20;;;;;;;;;;;;;;;;;;1021522;29;874;-21
2021/11/16 03:18:52;;;;;;;;;;;;;;;;;;1024415;28;1353;-21
2021/11/16 03:19:23;;;;;;;;;;;;;;;;;;1020783;29;1158;-21
2021/11/16 03:19:53;;;;;;;;;;;;;;;;;;1020658;29;1427;-20
2021/11/16 03:20:24;;;;;;;;;;;;;;;;;;1020417;29;1109;-20
2021/11/16 03:20:55;;;;;;;;;;;;;;;;;;1017295;29;1032;-21
2021/11/16 03:21:26;;;;;;;;;;;;;;;;;;1024201;28;1318;-22
2021/11/16 03:21:58;;;;;;;;;;;;;;;;;;1025144;28;972;-20
2021/11/16 03:22:41;;;;;;;;;;;;;;;;;;1024364;28;1481;-21
2021/11/16 03:23:21;;;;;;;;;;;;;;;;;;1023132;28;1119;-21
2021/11/16 03:23:55;;;;;;;;;;;;;;;;;;1021363;28;1616;-20
2021/11/16 03:24:27;;;;;;;;;;;;;;;;;;1024408;28;1088;-21
2021/11/16 03:24:59;;;;;;;;;;;;;;;;;;1024852;28;1931;-20
2021/11/16 03:25:34;;;;;;;;;;;;;;;;;;1020366;29;1377;-21
2021/11/16 03:26:05;;;;;;;;;;;;;;;;;;1011828;29;1025;-21
2021/11/16 03:26:36;;;;;;;;;;;;;;;;;;1008767;29;1410;-20
2021/11/16 03:27:10;;;;;;;;;;;;;;;;;;1010913;29;1124;-21
2021/11/16 03:27:43;;;;;;;;;;;;;;;;;;1019219;28;1027;-21
2021/11/16 03:28:15;;;;;;;;;;;;;;;;;;1024493;28;1487;-21
2021/11/16 03:28:50;;;;;;;;;;;;;;;;;;1024922;28;1207;-20
2021/11/16 03:29:24;;;;;;;;;;;;;;;;;;1019342;29;1084;-21
2021/11/16 03:29:58;;;;;;;;;;;;;;;;;;1016792;29;1253;-21
2021/11/16 03:30:29;;;;;;;;;;;;;;;;;;1012934;29;949;-21
2021/11/16 03:31:09;;;;;;;;;;;;;;;;;;1014710;29;970;-21
2021/11/16 03:31:48;;;;;;;;;;;;;;;;;;1020698;29;1008;-20
2021/11/16 03:32:19;;;;;;;;;;;;;;;;;;1020901;29;1263;-21
2021/11/16 03:32:50;;;;;;;;;;;;;;;;;;1012909;29;1003;-21
2021/11/16 03:33:22;;;;;;;;;;;;;;;;;;1012079;29;1471;-21
2021/11/16 03:33:52;;;;;;;;;;;;;;;;;;1013009;29;1143;-21
2021/11/16 03:34:26;;;;;;;;;;;;;;;;;;1013365;29;1084;-21
2021/11/16 03:34:57;;;;;;;;;;;;;;;;;;1021309;28;1116;-20
2021/11/16 03:35:28;;;;;;;;;;;;;;;;;;1024746;28;1080;-20
2021/11/16 03:35:58;;;;;;;;;;;;;;;;;;1016487;29;1088;-20
2021/11/16 03:36:29;;;;;;;;;;;;;;;;;;1016704;29;1204;-21
2021/11/16 03:37:00;;;;;;;;;;;;;;;;;;1016837;29;937;-21
2021/11/16 03:37:33;;;;;;;;;;;;;;;;;;1008994;29;1212;-20
2021/11/16 03:38:04;;;;;;;;;;;;;;;;;;1013015;29;950;-21
2021/11/16 03:38:36;;;;;;;;;;;;;;;;;;1012615;29;1258;-21
2021/11/16 03:39:06;;;;;;;;;;;;;;;;;;1008899;29;1029;-22
2021/11/16 03:39:37;;;;;;;;;;;;;;;;;;1009337;29;1189;-20